Time;durP1;ratioP1;P1;durP2;ratioP2;P2;SDS_P1;SDS_P2;PMS_P1;PMS_P2;Temp;Humidity;BMP_temperature;BMP_pressure;BME280_temperature;BME280_humidity;BME280_pressure;Samples;Min_cycle;Max_cycle;Signal;HPM_P1;HPM_P2
2022/03/02 00:02:00;;;;;;;26.98;12.15;;;;;;;5.77;32.24;102271.81;5072637;28;20090;-75
2022/03/02 00:04:26;;;;;;;27.60;12.48;;;;;;;5.51;32.92;102275.13;5073037;28;20060;-74
2022/03/02 00:06:53;;;;;;;29.50;13.10;;;;;;;5.48;32.87;102272.66;5072086;28;20059;-73
2022/03/02 00:09:20;;;;;;;32.60;13.93;;;;;;;5.38;33.10;102271.47;5072493;28;20072;-73
2022/03/02 00:11:47;;;;;;;27.50;13.65;;;;;;;5.52;32.68;102277.72;5070911;28;20461;-73
2022/03/02 00:14:13;;;;;;;31.13;14.27;;;;;;;5.66;32.68;102274.22;5072747;28;20071;-73
2022/03/02 00:16:40;;;;;;;28.20;13.27;;;;;;;5.79;32.41;102277.03;5072267;28;20090;-73
2022/03/02 00:19:08;;;;;;;26.20;12.80;;;;;;;5.76;32.50;102279.88;5071996;28;20048;-73
2022/03/02 00:21:35;;;;;;;31.27;13.27;;;;;;;5.83;32.38;102283.03;5054604;28;20128;-74
2022/03/02 00:24:03;;;;;;;27.95;13.15;;;;;;;5.57;32.69;102274.78;5071980;28;20130;-73
2022/03/02 00:26:31;;;;;;;32.67;13.75;;;;;;;5.68;32.63;102272.34;5072078;28;20048;-74
2022/03/02 00:28:58;;;;;;;30.63;12.90;;;;;;;5.39;33.30;102268.75;5071689;28;20128;-74
2022/03/02 00:31:25;;;;;;;31.45;13.90;;;;;;;5.47;33.23;102271.81;5072254;28;20048;-73
2022/03/02 00:33:52;;;;;;;37.38;13.65;;;;;;;5.41;33.43;102274.81;5071759;28;20048;-73
2022/03/02 00:36:18;;;;;;;28.08;14.32;;;;;;;5.47;33.18;102260.31;5072071;28;20040;-75
2022/03/02 00:38:44;;;;;;;34.60;13.68;;;;;;;4.61;34.78;102259.81;5072660;28;20073;-73
2022/03/02 00:41:11;;;;;;;33.30;13.73;;;;;;;4.91;34.48;102251.97;5072698;28;20068;-72
2022/03/02 00:43:37;;;;;;;32.58;14.30;;;;;;;5.21;33.89;102257.34;5072851;28;20523;-72
2022/03/02 00:46:04;;;;;;;31.75;14.15;;;;;;;5.41;33.20;102263.31;5072996;28;20123;-72
2022/03/02 00:48:31;;;;;;;31.33;13.60;;;;;;;5.54;33.24;102266.97;5071763;28;20048;-72
2022/03/02 00:50:57;;;;;;;33.53;14.23;;;;;;;5.57;33.24;102266.81;5071966;28;20080;-72
2022/03/02 00:53:24;;;;;;;28.55;13.48;;;;;;;5.56;33.40;102259.78;5071229;28;20428;-72
2022/03/02 00:55:50;;;;;;;33.22;14.10;;;;;;;5.68;33.26;102253.72;5071904;28;20481;-73
2022/03/02 00:58:17;;;;;;;30.88;13.32;;;;;;;5.58;33.30;102257.00;5071592;28;20599;-72
2022/03/02 01:00:44;;;;;;;29.05;13.38;;;;;;;5.72;33.16;102251.72;5072031;28;20051;-72
2022/03/02 01:03:10;;;;;;;32.88;13.35;;;;;;;5.63;33.17;102255.81;5071600;28;20045;-73
2022/03/02 01:05:37;;;;;;;34.75;14.07;;;;;;;5.59;33.36;102254.25;5072141;28;20476;-72
2022/03/02 01:08:05;;;;;;;32.10;13.48;;;;;;;5.70;33.03;102246.50;5068493;28;20045;-73
2022/03/02 01:10:32;;;;;;;33.90;12.93;;;;;;;5.87;32.69;102239.28;5071141;28;20068;-73
2022/03/02 01:12:58;;;;;;;35.45;13.93;;;;;;;5.65;33.13;102243.25;5071984;28;20127;-73
2022/03/02 01:15:24;;;;;;;31.70;13.68;;;;;;;5.74;33.12;102245.38;5072052;28;20112;-72
2022/03/02 01:17:51;;;;;;;40.20;15.73;;;;;;;5.80;33.25;102245.94;5071831;28;20083;-73
2022/03/02 01:20:17;;;;;;;31.50;13.45;;;;;;;5.24;34.12;102249.16;5070604;28;20128;-72
2022/03/02 01:22:44;;;;;;;27.67;12.38;;;;;;;5.58;33.35;102241.88;5061514;28;20140;-72
2022/03/02 01:25:10;;;;;;;33.20;14.13;;;;;;;5.11;34.20;102240.19;5053062;28;20131;-73
2022/03/02 01:27:37;;;;;;;27.90;13.00;;;;;;;5.12;34.46;102230.41;5046667;28;20052;-73
2022/03/02 01:30:06;;;;;;;32.25;13.82;;;;;;;5.40;33.74;102229.66;5064420;28;20056;-72
2022/03/02 01:32:32;;;;;;;31.15;13.50;;;;;;;5.31;34.26;102216.88;5071724;28;20059;-73
2022/03/02 01:34:59;;;;;;;29.30;13.18;;;;;;;5.58;33.63;102215.25;5070741;28;20131;-72
2022/03/02 01:37:25;;;;;;;31.52;12.80;;;;;;;5.32;33.92;102230.13;5071162;28;20075;-72
2022/03/02 01:39:52;;;;;;;36.53;14.15;;;;;;;5.12;34.42;102219.78;5071075;28;20055;-72
2022/03/02 01:42:18;;;;;;;31.95;13.77;;;;;;;5.32;34.21;102223.91;5070788;28;20120;-73
2022/03/02 01:44:45;;;;;;;32.15;14.38;;;;;;;5.43;33.87;102221.50;5070207;28;20480;-73
2022/03/02 01:47:11;;;;;;;29.45;14.00;;;;;;;5.46;33.83;102224.00;5071030;28;20050;-74
2022/03/02 01:49:39;;;;;;;30.25;14.50;;;;;;;5.59;33.80;102227.63;5070614;28;20147;-72
2022/03/02 01:52:05;;;;;;;24.83;13.30;;;;;;;5.34;34.50;102214.91;5072144;28;20076;-71
2022/03/02 01:54:32;;;;;;;34.42;14.25;;;;;;;5.26;34.47;102209.19;5070926;28;20048;-72
2022/03/02 01:56:59;;;;;;;31.85;14.32;;;;;;;5.21;34.73;102214.78;5071178;28;20218;-72
2022/03/02 01:59:25;;;;;;;31.60;13.68;;;;;;;5.13;34.82;102209.03;5071254;28;20117;-73
2022/03/02 02:01:52;;;;;;;33.25;13.70;;;;;;;5.20;34.67;102205.06;5070787;28;20083;-73
2022/03/02 02:04:19;;;;;;;31.48;13.63;;;;;;;5.21;34.75;102200.59;5070977;28;20041;-73
2022/03/02 02:07:32;;;;;;;33.42;13.85;;;;;;;4.79;35.33;102196.78;5071892;28;20480;-73
2022/03/02 02:09:59;;;;;;;30.35;14.90;;;;;;;4.86;35.32;102195.50;5070123;28;20469;-71
2022/03/02 02:12:25;;;;;;;30.58;13.90;;;;;;;4.90;35.47;102185.53;5070247;28;20041;-73
2022/03/02 02:14:52;;;;;;;29.30;15.00;;;;;;;5.18;34.79;102177.72;5070224;28;20577;-72
2022/03/02 02:17:18;;;;;;;33.28;14.48;;;;;;;4.88;35.56;102176.81;5070104;28;20132;-72
2022/03/02 02:19:45;;;;;;;34.60;14.95;;;;;;;4.34;36.41;102175.31;5070188;28;20578;-73
2022/03/02 02:22:11;;;;;;;30.20;14.07;;;;;;;4.79;35.63;102171.06;5070821;28;20499;-72
2022/03/02 02:24:38;;;;;;;31.63;14.38;;;;;;;4.87;35.71;102172.41;5071306;28;20068;-72
2022/03/02 02:27:05;;;;;;;33.20;14.52;;;;;;;5.20;35.10;102166.97;5071673;28;20074;-72
2022/03/02 02:29:34;;;;;;;32.72;14.80;;;;;;;4.45;36.29;102157.94;5069902;28;20064;-73
2022/03/02 02:32:00;;;;;;;29.35;13.50;;;;;;;3.99;37.50;102163.09;5070763;28;20132;-72
2022/03/02 02:34:27;;;;;;;30.90;15.00;;;;;;;4.40;36.97;102170.63;5070515;28;20108;-72
2022/03/02 02:36:54;;;;;;;33.50;13.88;;;;;;;4.16;37.05;102165.69;5074442;28;20052;-72
2022/03/02 02:39:24;;;;;;;33.60;15.02;;;;;;;3.90;37.57;102159.13;5073361;28;20135;-72
2022/03/02 02:41:50;;;;;;;25.65;13.55;;;;;;;3.68;38.36;102156.75;5074820;28;20143;-72
2022/03/02 02:44:17;;;;;;;34.20;14.75;;;;;;;3.71;38.13;102156.56;5065274;28;20135;-72
2022/03/02 02:46:44;;;;;;;39.75;14.98;;;;;;;4.16;38.01;102157.72;5074846;28;20056;-71
2022/03/02 02:49:11;;;;;;;36.10;15.55;;;;;;;4.84;36.34;102146.88;5074379;28;20075;-72
2022/03/02 02:51:38;;;;;;;37.53;15.50;;;;;;;5.02;36.19;102150.28;5075454;28;20098;-73
2022/03/02 02:54:04;;;;;;;35.55;16.00;;;;;;;4.92;36.24;102149.94;5065360;28;20064;-73
2022/03/02 02:56:31;;;;;;;29.25;14.52;;;;;;;5.25;35.78;102144.47;5074403;28;20131;-73
2022/03/02 02:58:57;;;;;;;33.78;14.73;;;;;;;5.19;35.94;102150.16;5074324;28;20082;-73
2022/03/02 03:01:24;;;;;;;30.90;14.40;;;;;;;5.25;35.46;102147.13;5074655;28;20036;-73
2022/03/02 03:03:50;;;;;;;29.60;14.70;;;;;;;5.13;35.95;102145.19;5074029;28;20114;-73
2022/03/02 03:06:17;;;;;;;34.72;15.43;;;;;;;5.00;36.03;102149.50;5074352;28;20067;-73
2022/03/02 03:08:43;;;;;;;34.47;15.73;;;;;;;4.50;37.04;102139.97;5064095;28;20075;-73
2022/03/02 03:11:10;;;;;;;32.22;15.95;;;;;;;4.04;37.97;102139.81;5072497;28;20087;-73
2022/03/02 03:13:36;;;;;;;37.97;15.02;;;;;;;4.53;37.01;102145.09;5075024;28;20473;-73
2022/03/02 03:16:03;;;;;;;38.38;16.02;;;;;;;4.33;37.50;102136.41;5073986;28;20484;-73
2022/03/02 03:18:29;;;;;;;36.92;15.38;;;;;;;4.39;37.18;102137.91;5073411;28;20469;-73
2022/03/02 03:20:55;;;;;;;39.00;15.57;;;;;;;4.77;36.38;102129.56;5074138;28;20076;-73
2022/03/02 03:23:22;;;;;;;33.53;16.08;;;;;;;4.59;37.07;102131.47;5072482;28;20064;-73
2022/03/02 03:25:48;;;;;;;32.80;14.88;;;;;;;4.82;36.52;102125.69;5073887;28;20044;-73
2022/03/02 03:28:15;;;;;;;35.00;15.48;;;;;;;4.71;36.69;102129.91;5073124;28;20071;-73
2022/03/02 03:30:41;;;;;;;36.15;15.98;;;;;;;4.85;36.71;102127.31;5074083;28;20135;-73
2022/03/02 03:33:08;;;;;;;38.47;16.38;;;;;;;4.75;36.54;102118.16;5074029;28;20484;-72
2022/03/02 03:35:34;;;;;;;37.83;16.02;;;;;;;4.91;36.46;102120.78;5052511;28;20072;-72
2022/03/02 03:38:01;;;;;;;32.67;15.23;;;;;;;4.63;36.98;102118.88;5073310;28;20052;-73
2022/03/02 03:40:28;;;;;;;36.40;16.63;;;;;;;4.95;36.38;102117.00;5072428;28;20048;-72
2022/03/02 03:42:55;;;;;;;37.47;16.02;;;;;;;4.97;36.46;102113.31;5073306;28;20056;-72
2022/03/02 03:45:21;;;;;;;35.67;16.13;;;;;;;4.81;36.58;102121.31;5072250;28;20450;-72
2022/03/02 03:47:49;;;;;;;40.70;16.77;;;;;;;5.03;36.24;102120.06;5073099;28;20127;-72
2022/03/02 03:50:16;;;;;;;38.60;16.05;;;;;;;4.72;36.86;102118.31;5072442;28;20064;-72
2022/03/02 03:52:42;;;;;;;32.45;15.52;;;;;;;4.82;36.64;102128.34;5073372;28;20098;-73
2022/03/02 03:55:10;;;;;;;36.72;16.63;;;;;;;5.39;35.67;102124.16;5073850;28;20064;-73
2022/03/02 03:57:37;;;;;;;37.53;16.10;;;;;;;5.23;35.91;102118.91;5064938;28;20459;-73
2022/03/02 04:00:08;;;;;;;35.85;16.17;;;;;;;5.17;36.12;102108.59;5072495;28;20449;-73
2022/03/02 04:02:34;;;;;;;40.78;14.68;;;;;;;4.38;37.45;102114.91;5072730;28;20131;-73
2022/03/02 04:05:02;;;;;;;36.75;16.98;;;;;;;4.56;37.03;102113.03;5072876;28;20503;-73
2022/03/02 04:07:29;;;;;;;30.80;16.13;;;;;;;4.60;37.06;102113.72;5072545;28;20123;-73
2022/03/02 04:09:55;;;;;;;34.63;17.08;;;;;;;4.88;36.39;102115.66;5072401;28;20124;-73
2022/03/02 04:12:22;;;;;;;39.42;16.42;;;;;;;5.30;35.83;102120.25;5073479;28;20068;-73
2022/03/02 04:14:48;;;;;;;40.03;17.27;;;;;;;5.01;36.29;102116.66;5073963;28;20075;-73
2022/03/02 04:17:15;;;;;;;35.83;16.75;;;;;;;4.95;36.25;102120.53;5072694;28;20068;-73
2022/03/02 04:19:42;;;;;;;37.22;17.17;;;;;;;4.96;36.16;102118.72;5073768;28;20044;-73
2022/03/02 04:22:09;;;;;;;35.67;16.95;;;;;;;5.05;36.04;102112.88;5072297;28;20441;-73
2022/03/02 04:24:35;;;;;;;40.03;16.92;;;;;;;5.03;36.08;102107.63;5054450;28;20497;-73
2022/03/02 04:27:02;;;;;;;37.22;16.38;;;;;;;5.04;35.89;102106.69;5061999;28;20119;-73
2022/03/02 04:29:29;;;;;;;43.30;17.80;;;;;;;4.31;37.04;102116.16;5072975;28;20136;-73
2022/03/02 04:31:55;;;;;;;37.53;16.58;;;;;;;4.95;36.36;102114.34;5073038;28;20068;-73
2022/03/02 04:34:22;;;;;;;35.22;17.10;;;;;;;5.11;35.99;102114.28;5072100;28;20132;-73
2022/03/02 04:36:48;;;;;;;38.22;16.65;;;;;;;4.92;36.07;102104.72;5073344;28;20044;-73
2022/03/02 04:39:15;;;;;;;40.22;16.55;;;;;;;5.06;35.99;102106.59;5071438;28;20064;-72
2022/03/02 04:41:42;;;;;;;34.90;17.33;;;;;;;5.11;35.85;102108.97;5072469;28;20050;-73
2022/03/02 04:44:08;;;;;;;40.38;17.52;;;;;;;4.75;36.42;102112.84;5071621;28;20064;-73
2022/03/02 04:46:35;;;;;;;42.60;16.40;;;;;;;4.32;36.79;102121.41;5070848;28;20040;-73
2022/03/02 04:49:10;;;;;;;42.55;18.05;;;;;;;4.61;36.80;102113.63;5071872;28;20130;-73
2022/03/02 04:51:40;;;;;;;37.47;16.85;;;;;;;4.94;36.13;102117.97;5072433;28;20385;-73
2022/03/02 04:54:07;;;;;;;43.35;18.02;;;;;;;4.75;36.42;102110.19;5070374;28;20049;-73
2022/03/02 04:56:35;;;;;;;43.20;18.35;;;;;;;4.74;36.37;102111.97;5071577;28;20465;-73
2022/03/02 04:59:01;;;;;;;37.00;17.25;;;;;;;4.92;36.17;102107.41;5070515;28;20045;-73
2022/03/02 05:01:28;;;;;;;36.47;17.55;;;;;;;4.60;36.37;102103.94;5071688;28;20452;-72
2022/03/02 05:03:55;;;;;;;44.47;17.92;;;;;;;4.62;36.35;102098.53;5071569;28;20071;-73
2022/03/02 05:06:22;;;;;;;42.20;17.67;;;;;;;5.00;35.79;102089.16;5055674;28;20510;-73
2022/03/02 05:08:48;;;;;;;44.33;16.98;;;;;;;4.84;36.25;102098.16;5071246;28;20067;-72
2022/03/02 05:11:15;;;;;;;43.40;18.70;;;;;;;4.92;35.99;102098.56;5071991;28;20443;-72
2022/03/02 05:13:41;;;;;;;40.88;17.45;;;;;;;4.82;35.94;102082.28;5072512;28;20131;-72
2022/03/02 05:16:08;;;;;;;38.00;17.67;;;;;;;4.75;35.88;102086.25;5071608;28;20119;-73
2022/03/02 05:18:34;;;;;;;44.40;18.77;;;;;;;4.83;36.10;102084.00;5068306;28;20048;-73
2022/03/02 05:21:01;;;;;;;39.50;18.05;;;;;;;5.02;35.59;102078.47;5071648;28;20099;-72
2022/03/02 05:23:27;;;;;;;41.70;18.13;;;;;;;5.07;35.87;102080.84;5071481;28;20108;-72
2022/03/02 05:25:54;;;;;;;43.20;17.60;;;;;;;5.04;35.71;102088.06;5069664;28;20047;-72
2022/03/02 05:28:20;;;;;;;42.40;18.40;;;;;;;5.10;35.49;102086.84;5070840;28;20048;-72
2022/03/02 05:30:46;;;;;;;42.65;19.00;;;;;;;5.13;35.39;102091.13;5070695;28;20465;-72
2022/03/02 05:33:13;;;;;;;40.60;19.08;;;;;;;5.00;35.42;102085.66;5072053;28;20124;-73
2022/03/02 05:35:39;;;;;;;40.65;18.58;;;;;;;5.13;35.30;102083.13;5070154;28;20119;-73
2022/03/02 05:38:07;;;;;;;39.65;19.33;;;;;;;5.20;35.25;102089.81;5070773;28;20139;-73
2022/03/02 05:40:33;;;;;;;46.22;19.30;;;;;;;4.91;35.44;102088.88;5070990;28;20044;-72
2022/03/02 05:42:59;;;;;;;39.10;18.48;;;;;;;4.49;36.17;102085.09;5070402;28;20120;-73
2022/03/02 05:45:26;;;;;;;44.25;19.80;;;;;;;4.90;35.82;102089.81;5069718;28;20565;-72
2022/03/02 05:47:52;;;;;;;47.10;19.88;;;;;;;4.91;35.75;102086.22;5069602;28;20407;-71
2022/03/02 05:50:19;;;;;;;45.65;19.38;;;;;;;4.71;36.05;102092.69;5070819;28;20492;-73
2022/03/02 05:52:45;;;;;;;44.53;19.13;;;;;;;4.01;36.98;102079.75;5072245;28;20488;-71
2022/03/02 05:55:12;;;;;;;51.45;19.30;;;;;;;4.06;37.08;102077.69;5071570;28;20132;-70
2022/03/02 05:57:38;;;;;;;49.92;20.52;;;;;;;4.47;36.71;102087.84;5071324;28;20064;-72
2022/03/02 06:00:06;;;;;;;45.10;19.40;;;;;;;4.10;37.35;102083.69;5071138;28;20399;-72
2022/03/02 06:02:32;;;;;;;43.40;19.75;;;;;;;4.81;36.18;102084.09;5071297;28;20112;-71
2022/03/02 06:04:59;;;;;;;47.80;19.88;;;;;;;4.21;37.44;102086.63;5071340;28;20044;-71
2022/03/02 06:07:26;;;;;;;42.13;18.67;;;;;;;3.81;37.52;102091.44;5070501;28;20127;-71
2022/03/02 06:09:52;;;;;;;47.83;20.42;;;;;;;4.60;36.62;102087.16;5070756;28;20135;-71
2022/03/02 06:12:19;;;;;;;56.80;21.90;;;;;;;4.62;36.41;102088.75;5070069;28;20352;-72
2022/03/02 06:14:46;;;;;;;47.97;21.48;;;;;;;4.85;35.76;102099.88;5071300;28;20040;-72
2022/03/02 06:17:13;;;;;;;48.53;22.17;;;;;;;4.81;36.04;102092.06;5071007;28;20536;-72
2022/03/02 06:19:40;;;;;;;44.38;21.05;;;;;;;4.86;36.26;102096.25;5070258;28;20049;-72
2022/03/02 06:22:07;;;;;;;48.92;22.50;;;;;;;4.94;36.13;102091.38;5070661;28;20461;-71
2022/03/02 06:24:34;;;;;;;59.33;22.38;;;;;;;4.96;35.87;102087.66;5053309;28;20064;-72
2022/03/02 06:27:00;;;;;;;48.25;23.10;;;;;;;4.57;36.79;102098.81;5060562;28;20425;-71
2022/03/02 06:29:28;;;;;;;57.65;24.75;;;;;;;5.10;35.66;102096.63;5070746;28;20044;-72
2022/03/02 06:31:54;;;;;;;57.10;23.67;;;;;;;5.14;35.59;102099.00;5071122;28;20068;-71
2022/03/02 06:34:21;;;;;;;49.53;23.08;;;;;;;4.84;35.92;102100.81;5071159;28;20131;-71
2022/03/02 06:36:50;;;;;;;52.10;24.52;;;;;;;3.81;37.76;102099.41;5071016;28;20412;-71
2022/03/02 06:39:21;;;;;;;55.90;24.38;;;;;;;4.42;36.91;102105.00;5071095;28;20041;-70
2022/03/02 06:42:11;;;;;;;36.92;17.83;;;;;;;4.06;37.49;102092.75;5070735;28;20075;-69
2022/03/02 06:44:53;;;;;;;58.33;24.42;;;;;;;4.85;36.15;102107.84;5066954;28;20049;-70
2022/03/02 06:47:25;;;;;;;58.78;24.02;;;;;;;4.95;35.68;102109.88;5045323;28;20069;-69
2022/03/02 06:50:03;;;;;;;53.35;23.85;;;;;;;4.85;36.13;102113.16;5070247;28;20045;-69
2022/03/02 06:52:35;;;;;;;53.22;22.88;;;;;;;5.02;35.95;102108.56;5071193;28;20128;-67
2022/03/02 06:55:06;;;;;;;53.78;23.65;;;;;;;4.57;36.72;102099.66;5069122;28;20458;-67
2022/03/02 06:57:33;;;;;;;47.92;23.38;;;;;;;4.93;36.15;102102.94;5062327;28;20166;-68
2022/03/02 07:00:18;;;;;;;59.05;24.13;;;;;;;5.09;35.70;102103.75;5070081;28;20052;-68
2022/03/02 07:02:51;;;;;;;61.55;23.98;;;;;;;5.12;35.82;102100.06;5070179;28;20037;-69
2022/03/02 07:05:19;;;;;;;59.00;23.58;;;;;;;4.68;36.83;102100.84;5070550;28;20111;-70
2022/03/02 07:07:47;;;;;;;65.60;26.08;;;;;;;4.78;36.08;102094.06;5071390;28;20123;-70
2022/03/02 07:10:14;;;;;;;49.03;24.25;;;;;;;3.99;37.78;102097.56;5071031;28;20476;-69
2022/03/02 07:12:41;;;;;;;56.83;24.00;;;;;;;4.69;36.67;102095.41;5070010;28;20048;-68
2022/03/02 07:15:08;;;;;;;53.67;24.30;;;;;;;4.27;37.20;102102.19;5069770;28;20064;-68
2022/03/02 07:17:35;;;;;;;56.45;23.77;;;;;;;4.40;37.03;102090.94;5052397;28;20406;-69
2022/03/02 07:20:04;;;;;;;48.80;25.17;;;;;;;4.71;36.63;102085.56;5070095;28;20504;-68
2022/03/02 07:22:33;;;;;;;54.85;24.58;;;;;;;5.67;35.25;102086.91;5073123;28;20123;-69
2022/03/02 07:25:06;;;;;;;62.78;23.38;;;;;;;5.46;35.26;102096.22;5069719;28;20044;-69
2022/03/02 07:27:38;;;;;;;44.45;22.65;;;;;;;5.83;34.98;102091.28;5073520;28;20072;-69
2022/03/02 07:30:05;;;;;;;54.20;24.70;;;;;;;6.01;34.80;102084.81;5073373;28;20127;-70
2022/03/02 07:32:33;;;;;;;56.50;23.25;;;;;;;6.17;34.50;102095.34;5063268;28;20132;-70
2022/03/02 07:35:01;;;;;;;55.00;25.20;;;;;;;5.67;34.75;102097.56;5072488;28;20040;-70
2022/03/02 07:37:28;;;;;;;59.50;23.05;;;;;;;4.95;35.87;102096.59;5072562;28;20041;-70
2022/03/02 07:39:55;;;;;;;57.63;24.77;;;;;;;5.93;34.72;102092.41;5072452;28;20374;-70
2022/03/02 07:42:22;;;;;;;56.60;25.23;;;;;;;5.68;34.97;102088.63;5073107;28;20128;-69
2022/03/02 07:44:49;;;;;;;53.08;24.48;;;;;;;4.90;36.12;102088.03;5073497;28;20461;-69
2022/03/02 07:47:17;;;;;;;55.65;23.70;;;;;;;5.84;34.62;102077.88;5073871;28;20076;-70
2022/03/02 07:49:46;;;;;;;53.90;23.42;;;;;;;5.90;34.50;102087.28;5073511;28;20098;-70
2022/03/02 07:52:14;;;;;;;53.70;24.45;;;;;;;6.15;33.87;102076.81;5069069;28;20076;-70
2022/03/02 07:54:42;;;;;;;62.88;24.73;;;;;;;6.08;33.99;102079.94;5061727;28;20127;-70
2022/03/02 07:57:10;;;;;;;56.20;25.63;;;;;;;6.19;34.11;102078.31;5073210;28;20064;-70
2022/03/02 07:59:40;;;;;;;62.05;24.05;;;;;;;6.60;33.13;102079.25;5063644;28;20570;-70
2022/03/02 08:02:08;;;;;;;56.40;25.25;;;;;;;5.96;33.91;102071.78;5072239;28;20042;-69
2022/03/02 08:04:36;;;;;;;57.47;25.02;;;;;;;5.85;34.38;102076.94;5072474;28;20058;-70
2022/03/02 08:07:03;;;;;;;55.95;25.10;;;;;;;5.91;34.45;102081.03;5072496;28;20131;-70
2022/03/02 08:09:34;;;;;;;69.55;24.85;;;;;;;6.52;33.39;102078.91;5072336;28;20427;-69
2022/03/02 08:12:04;;;;;;;68.27;25.27;;;;;;;7.14;32.15;102082.72;5072712;28;20569;-68
2022/03/02 08:14:31;;;;;;;56.85;25.52;;;;;;;6.36;33.32;102076.41;5072003;28;20098;-70
2022/03/02 08:16:58;;;;;;;63.67;25.73;;;;;;;6.97;32.60;102069.66;5065996;28;20064;-69
2022/03/02 08:19:25;;;;;;;58.58;25.40;;;;;;;7.15;32.04;102072.88;5073682;28;20072;-71
2022/03/02 08:21:57;;;;;;;52.47;23.95;;;;;;;7.50;31.51;102073.13;5072359;28;20041;-69
2022/03/02 08:24:27;;;;;;;68.82;24.42;;;;;;;6.94;32.29;102075.19;5073470;28;20123;-69
2022/03/02 08:26:58;;;;;;;62.05;24.98;;;;;;;6.53;33.29;102069.94;5072676;28;20044;-69
2022/03/02 08:29:26;;;;;;;46.05;22.48;;;;;;;7.31;31.79;102060.19;5073056;28;20167;-69
2022/03/02 08:31:57;;;;;;;55.85;24.42;;;;;;;7.10;31.99;102065.19;5071633;28;20459;-69
2022/03/02 08:34:24;;;;;;;52.83;24.55;;;;;;;8.04;30.72;102062.19;5071825;28;20049;-69
2022/03/02 08:36:53;;;;;;;53.50;24.45;;;;;;;9.59;28.37;102058.53;5072664;28;20493;-69
2022/03/02 08:39:19;;;;;;;56.53;25.77;;;;;;;9.56;28.31;102056.09;5072555;28;20041;-70
2022/03/02 08:41:46;;;;;;;47.58;23.95;;;;;;;7.58;30.73;102059.25;5072952;28;20049;-72
2022/03/02 08:44:12;;;;;;;50.05;23.77;;;;;;;10.31;27.53;102042.00;5072633;28;20123;-72
2022/03/02 08:46:40;;;;;;;62.58;22.98;;;;;;;11.24;26.17;102052.13;5073065;28;20102;-72
2022/03/02 08:49:07;;;;;;;47.75;22.50;;;;;;;10.21;26.83;102044.59;5072577;28;20048;-72
2022/03/02 08:51:35;;;;;;;45.30;23.67;;;;;;;10.45;26.54;102044.41;5073205;28;20044;-71
2022/03/02 08:54:03;;;;;;;51.72;24.05;;;;;;;11.16;25.76;102047.38;5054111;28;20119;-71
2022/03/02 08:56:32;;;;;;;50.80;24.13;;;;;;;11.81;24.67;102039.94;5070476;28;20119;-71
2022/03/02 08:59:00;;;;;;;46.97;23.42;;;;;;;12.27;24.33;102038.50;5070001;28;20103;-72
2022/03/02 09:01:29;;;;;;;43.95;22.63;;;;;;;12.79;23.35;102031.03;5072864;28;20083;-71
2022/03/02 09:03:59;;;;;;;43.33;22.65;;;;;;;12.87;22.96;102041.97;5072919;28;20051;-71
2022/03/02 09:06:27;;;;;;;39.92;21.98;;;;;;;12.25;23.66;102040.50;5071932;28;20124;-70
2022/03/02 09:08:56;;;;;;;45.40;21.80;;;;;;;11.38;24.59;102030.28;5072176;28;20075;-70
2022/03/02 09:11:23;;;;;;;48.78;22.50;;;;;;;11.09;24.89;102039.97;5072782;28;20516;-69
2022/03/02 09:13:50;;;;;;;43.90;22.23;;;;;;;11.03;25.05;102035.13;5071986;28;20127;-69
2022/03/02 09:16:20;;;;;;;47.05;22.08;;;;;;;11.74;24.17;102037.94;5065190;28;20508;-70
2022/03/02 09:18:48;;;;;;;42.58;22.63;;;;;;;12.36;23.63;102032.28;5063933;28;20048;-70
2022/03/02 09:21:14;;;;;;;41.08;20.70;;;;;;;11.97;23.58;102025.13;5069751;28;20071;-70
2022/03/02 09:23:42;;;;;;;43.28;20.48;;;;;;;11.61;23.92;102033.59;5070759;28;20131;-70
2022/03/02 09:26:14;;;;;;;42.25;21.27;;;;;;;11.88;23.62;102033.03;5072200;28;20455;-70
2022/03/02 09:28:43;;;;;;;47.13;21.23;;;;;;;11.81;23.35;102023.81;5071693;28;20476;-70
2022/03/02 09:31:14;;;;;;;38.92;20.25;;;;;;;12.91;22.38;102025.53;5071883;28;20132;-71
2022/03/02 09:33:41;;;;;;;33.40;14.87;;;;;;;12.85;22.51;102021.56;5072018;28;20492;-71
2022/03/02 09:36:11;;;;;;;43.88;19.58;;;;;;;11.24;23.61;102025.25;5071723;28;20082;-71
2022/03/02 09:38:39;;;;;;;40.15;19.30;;;;;;;10.46;24.41;102027.31;5072280;28;20551;-71
2022/03/02 09:41:09;;;;;;;40.42;17.88;;;;;;;10.06;24.51;102026.22;5072323;28;20164;-70
2022/03/02 09:43:36;;;;;;;34.35;17.02;;;;;;;10.91;24.19;102016.41;5072036;28;20057;-70
2022/03/02 09:46:06;;;;;;;40.03;19.40;;;;;;;11.04;23.77;102023.41;5071597;28;20071;-70
2022/03/02 09:48:35;;;;;;;36.88;18.95;;;;;;;11.11;23.93;102021.91;5071122;28;20476;-71
2022/03/02 09:51:07;;;;;;;36.35;18.98;;;;;;;11.44;23.30;102027.03;5070665;28;20476;-72
2022/03/02 09:53:35;;;;;;;39.17;18.77;;;;;;;11.13;23.53;102026.16;5071537;28;20052;-71
2022/03/02 09:56:05;;;;;;;38.47;18.95;;;;;;;11.41;23.30;102026.44;5071139;28;20098;-71
2022/03/02 09:58:39;;;;;;;40.97;19.15;;;;;;;10.99;23.69;102023.78;5071167;28;20152;-72
2022/03/02 10:01:15;;;;;;;36.85;15.82;;;;;;;10.58;23.51;102019.25;5071468;28;20071;-71
2022/03/02 10:03:47;;;;;;;36.72;17.70;;;;;;;10.99;23.52;102023.78;5071509;28;20127;-72
2022/03/02 10:06:17;;;;;;;34.45;16.73;;;;;;;11.54;23.02;102021.69;5071108;28;20040;-72
2022/03/02 10:08:49;;;;;;;35.85;15.80;;;;;;;10.87;23.10;102024.84;5071720;28;20556;-72
2022/03/02 10:11:24;;;;;;;35.78;18.27;;;;;;;11.48;22.61;102022.22;5071224;28;20140;-71
2022/03/02 10:13:55;;;;;;;38.50;19.15;;;;;;;11.17;23.38;102011.50;5071144;28;20130;-71
2022/03/02 10:16:27;;;;;;;44.03;19.58;;;;;;;10.48;24.23;102020.00;5070367;28;20091;-71
2022/03/02 10:19:02;;;;;;;42.88;19.10;;;;;;;11.06;23.68;102016.91;5072011;28;20106;-72
2022/03/02 10:21:37;;;;;;;38.83;18.15;;;;;;;11.12;23.13;102021.75;5072105;28;20128;-71
2022/03/02 10:24:04;;;;;;;40.85;18.42;;;;;;;11.66;22.72;102020.66;5071649;28;20128;-71
2022/03/02 10:26:35;;;;;;;36.47;17.73;;;;;;;11.53;22.62;102021.84;5072055;28;20123;-72
2022/03/02 10:29:28;;;;;;;38.20;19.15;;;;;;;12.41;21.78;102016.56;5070950;28;20064;-71
2022/03/02 10:32:08;;;;;;;33.58;17.27;;;;;;;11.04;22.95;102010.84;5071260;28;20060;-71
2022/03/02 10:34:37;;;;;;;35.28;17.45;;;;;;;11.20;22.98;102010.34;5075242;28;20102;-71
2022/03/02 10:37:19;;;;;;;33.55;16.17;;;;;;;10.80;22.82;102007.56;5067700;28;20614;-71
2022/03/02 10:40:09;;;;;;;32.00;16.23;;;;;;;10.95;22.16;102000.88;5071713;28;20041;-71
2022/03/02 10:42:51;;;;;;;32.63;15.00;;;;;;;11.81;21.50;101999.63;5073199;28;20048;-71
2022/03/02 10:45:23;;;;;;;29.42;15.48;;;;;;;12.59;20.41;101995.19;5071277;28;20128;-73
2022/03/02 10:48:12;;;;;;;36.25;16.60;;;;;;;12.84;19.94;101992.94;5071961;28;20471;-71
2022/03/02 10:50:42;;;;;;;27.73;16.42;;;;;;;12.64;19.97;101997.44;5071316;28;20357;-71
2022/03/02 10:53:13;;;;;;;24.77;14.10;;;;;;;12.46;19.63;101988.41;5071554;28;20144;-72
2022/03/02 10:55:45;;;;;;;33.80;17.27;;;;;;;10.53;21.83;101989.28;5072125;28;20044;-71
2022/03/02 10:58:14;;;;;;;28.70;15.35;;;;;;;11.70;20.82;101994.34;5075665;28;20136;-71
2022/03/02 11:00:42;;;;;;;33.67;16.55;;;;;;;13.16;19.38;101989.88;5058020;28;20053;-71
2022/03/02 11:03:09;;;;;;;29.88;15.27;;;;;;;12.64;19.14;101986.69;5058522;28;20117;-71
2022/03/02 11:05:36;;;;;;;30.42;14.90;;;;;;;12.93;19.54;101983.13;5071404;28;20048;-71
2022/03/02 11:08:03;;;;;;;32.58;16.42;;;;;;;14.36;18.22;101970.94;5071331;28;20499;-71
2022/03/02 11:10:37;;;;;;;32.72;15.18;;;;;;;14.12;18.25;101979.66;5075151;28;20123;-70
2022/03/02 11:13:13;;;;;;;31.77;15.07;;;;;;;13.62;18.77;101977.34;5074442;28;20102;-70
2022/03/02 11:15:45;;;;;;;31.67;17.35;;;;;;;13.53;18.83;101981.81;5070098;28;20109;-72
2022/03/02 11:18:19;;;;;;;31.88;16.15;;;;;;;12.26;20.08;101977.63;5073243;28;20044;-71
2022/03/02 11:21:01;;;;;;;28.35;15.30;;;;;;;13.38;18.84;101975.19;5074739;28;20438;-71